Wetterdaten: Woche 20.01.20 - 26.01.20 (KW4)
Datum Zeit Temp. Aussen Temp. o. S. Temp +5cm Feuchte Auss Luftdruck Regen Sonnenschein Regendauer Solar Windben Empfang
20.01.2020 00:00 0,5 C -0,8 C -1,7 C 96 % 1046,7 hPa 0,0 l/m 0,00 h 0,00 h 0 W/m 0,0 km/h (0 Bft) 97,29 %
20.01.2020 01:00 0,3 C -0,3 C -1,3 C 96 % 1047,0 hPa 0,0 l/m 0,00 h 0,00 h 0 W/m 0,0 km/h (0 Bft) 96,51 %
20.01.2020 02:00 0,5 C -0,2 C -1,2 C 96 % 1047,0 hPa 0,0 l/m 0,00 h 0,00 h 0 W/m 0,0 km/h (0 Bft) 96,20 %
20.01.2020 03:00 0,4 C -0,7 C -1,5 C 97 % 1047,0 hPa 0,0 l/m 0,00 h 0,00 h 0 W/m 0,0 km/h (0 Bft) 96,95 %
20.01.2020 04:00 0,5 C 0,0 C -0,4 C 97 % 1047,2 hPa 0,0 l/m 0,00 h 0,00 h 0 W/m 0,0 km/h (0 Bft) 98,15 %
20.01.2020 05:00 0,8 C 0,4 C -0,0 C 97 % 1047,4 hPa 0,0 l/m 0,00 h 0,00 h 0 W/m 0,0 km/h (0 Bft) 96,44 %
20.01.2020 06:00 1,1 C 0,7 C 0,2 C 97 % 1047,5 hPa 0,0 l/m 0,00 h 0,00 h 0 W/m 0,0 km/h (0 Bft) 97,72 %
20.01.2020 07:00 1,4 C 0,6 C 0,6 C 98 % 1047,8 hPa 0,0 l/m 0,00 h 0,00 h 0 W/m 0,0 km/h (0 Bft) 98,22 %
20.01.2020 08:00 1,4 C 0,6 C 0,6 C 98 % 1047,9 hPa 0,0 l/m 0,00 h 0,00 h 6 W/m 0,0 km/h (0 Bft) 97,20 %
20.01.2020 09:00 1,3 C 0,7 C 0,4 C 98 % 1048,6 hPa 0,2 l/m 0,00 h 0,00 h 22 W/m 0,0 km/h (0 Bft) 96,68 %
20.01.2020 10:00 1,4 C 1,2 C 0,8 C 98 % 1049,0 hPa 0,0 l/m 0,00 h 0,00 h 65 W/m 0,0 km/h (0 Bft) 98,01 %
20.01.2020 11:00 1,9 C 2,0 C 1,4 C 99 % 1049,0 hPa 0,0 l/m 0,00 h 0,00 h 90 W/m 1,0 km/h (0 Bft) 95,38 %
20.01.2020 12:00 2,5 C 2,7 C 2,3 C 99 % 1048,8 hPa 0,0 l/m 0,00 h 0,00 h 97 W/m 0,2 km/h (0 Bft) 98,43 %
20.01.2020 13:00 2,9 C 3,0 C 2,7 C 99 % 1048,5 hPa 0,0 l/m 0,00 h 0,00 h 111 W/m 0,4 km/h (0 Bft) 96,42 %
20.01.2020 14:00 3,3 C 3,3 C 2,8 C 99 % 1048,0 hPa 0,0 l/m 0,00 h 0,00 h 72 W/m 0,4 km/h (0 Bft) 97,10 %
20.01.2020 15:00 3,4 C 3,3 C 2,8 C 99 % 1047,4 hPa 0,0 l/m 0,00 h 0,00 h 40 W/m 0,4 km/h (0 Bft) 96,73 %
20.01.2020 16:00 3,4 C 3,2 C 2,8 C 100 % 1047,0 hPa 0,0 l/m 0,00 h 0,00 h 14 W/m 0,0 km/h (0 Bft) 96,30 %
20.01.2020 17:00 3,3 C 2,8 C 2,3 C 99 % 1047,0 hPa 0,0 l/m 0,00 h 0,00 h 0 W/m 0,0 km/h (0 Bft) 98,87 %
20.01.2020 18:00 3,3 C 2,8 C 2,2 C 100 % 1046,9 hPa 0,0 l/m 0,00 h 0,00 h 0 W/m 0,0 km/h (0 Bft) 97,29 %
20.01.2020 19:00 3,1 C 2,3 C 2,0 C 100 % 1046,8 hPa 0,0 l/m 0,00 h 0,00 h 0 W/m 0,0 km/h (0 Bft) 95,59 %
20.01.2020 20:00 2,7 C 1,8 C 1,6 C 100 % 1046,7 hPa 0,0 l/m 0,00 h 0,00 h 0 W/m 0,0 km/h (0 Bft) 99,79 %
20.01.2020 21:00 2,4 C 1,6 C 1,2 C 100 % 1046,6 hPa 0,0 l/m 0,00 h 0,00 h 0 W/m 0,0 km/h (0 Bft) 96,09 %
20.01.2020 22:00 1,8 C 0,7 C 0,6 C 99 % 1046,6 hPa 0,0 l/m 0,00 h 0,00 h 0 W/m 0,0 km/h (0 Bft) 95,23 %
20.01.2020 23:00 1,4 C 0,6 C 0,2 C 99 % 1046,2 hPa 0,0 l/m 0,00 h 0,00 h 0 W/m 0,0 km/h (0 Bft) 99,72 %
21.01.2020 00:00 0,9 C -0,0 C -0,3 C 99 % 1046,0 hPa 0,0 l/m 0,00 h 0,00 h 0 W/m 0,6 km/h (0 Bft) 95,31 %
21.01.2020 01:00 0,3 C -0,6 C -0,9 C 99 % 1045,6 hPa 0,0 l/m 0,00 h 0,00 h 0 W/m 0,1 km/h (0 Bft) 96,02 %
21.01.2020 02:00 -0,2 C -1,1 C -1,5 C 99 % 1045,1 hPa 0,0 l/m 0,00 h 0,00 h 0 W/m 0,1 km/h (0 Bft) 95,22 %
21.01.2020 03:00 -0,9 C -1,9 C -2,1 C 99 % 1044,8 hPa 0,0 l/m 0,00 h 0,00 h 0 W/m 0,3 km/h (0 Bft) 95,92 %
21.01.2020 04:00 -1,4 C -2,5 C -2,7 C 99 % 1044,3 hPa 0,0 l/m 0,00 h 0,00 h 0 W/m 0,0 km/h (0 Bft) 99,00 %
21.01.2020 05:00 -1,9 C -3,5 C -3,6 C 99 % 1043,9 hPa 0,0 l/m 0,00 h 0,00 h 0 W/m 0,0 km/h (0 Bft) 95,74 %
21.01.2020 06:00 -2,5 C -3,7 C -3,9 C 99 % 1043,6 hPa 0,0 l/m 0,00 h 0,00 h 0 W/m 0,0 km/h (0 Bft) 96,51 %
21.01.2020 07:00 -2,5 C -3,4 C -3,8 C 99 % 1043,5 hPa 0,0 l/m 0,00 h 0,00 h 0 W/m 0,0 km/h (0 Bft) 97,66 %
21.01.2020 08:00 -2,0 C -2,8 C -3,1 C 99 % 1043,3 hPa 0,0 l/m 0,00 h 0,00 h 8 W/m 3,1 km/h (1 Bft) 99,00 %
21.01.2020 09:00 -1,7 C -1,4 C -3,0 C 99 % 1043,4 hPa 0,0 l/m 0,27 h 0,00 h 49 W/m 0,4 km/h (0 Bft) 94,06 %
21.01.2020 10:00 -0,2 C 2,1 C -1,8 C 100 % 1043,7 hPa 0,2 l/m 0,83 h 0,00 h 189 W/m 2,2 km/h (1 Bft) 97,16 %
21.01.2020 11:00 1,1 C 4,8 C -0,5 C 100 % 1043,7 hPa 0,0 l/m 0,93 h 0,00 h 262 W/m 0,6 km/h (0 Bft) 94,95 %
21.01.2020 12:00 2,7 C 8,5 C 2,3 C 100 % 1043,0 hPa 0,0 l/m 1,00 h 0,00 h 349 W/m 0,0 km/h (0 Bft) 96,01 %
21.01.2020 13:00 4,6 C 11,0 C 2,5 C 94 % 1042,4 hPa 0,0 l/m 1,00 h 0,00 h 335 W/m 0,0 km/h (0 Bft) 96,44 %
21.01.2020 14:00 6,0 C 10,8 C 3,2 C 83 % 1041,7 hPa 0,0 l/m 1,00 h 0,00 h 276 W/m 0,0 km/h (0 Bft) 96,17 %
21.01.2020 15:00 5,2 C 4,9 C 2,4 C 81 % 1041,3 hPa 0,0 l/m 0,27 h 0,00 h 80 W/m 0,0 km/h (0 Bft) 98,36 %
21.01.2020 16:00 4,0 C 2,5 C 0,4 C 84 % 1041,0 hPa 0,0 l/m 0,00 h 0,00 h 20 W/m 0,0 km/h (0 Bft) 95,62 %
21.01.2020 17:00 2,8 C 1,4 C -0,9 C 87 % 1040,6 hPa 0,0 l/m 0,00 h 0,00 h 5 W/m 0,0 km/h (0 Bft) 96,51 %
21.01.2020 18:00 1,0 C -1,4 C -2,6 C 87 % 1040,6 hPa 0,0 l/m 0,00 h 0,00 h 0 W/m 0,0 km/h (0 Bft) 97,45 %
21.01.2020 19:00 -0,2 C -1,4 C -2,6 C 90 % 1040,4 hPa 0,0 l/m 0,00 h 0,00 h 0 W/m 0,0 km/h (0 Bft) 97,34 %
21.01.2020 20:00 -0,6 C -2,0 C -2,7 C 93 % 1040,0 hPa 0,0 l/m 0,00 h 0,00 h 0 W/m 0,0 km/h (0 Bft) 96,68 %
21.01.2020 21:00 -1,4 C -2,8 C -3,0 C 94 % 1039,8 hPa 0,0 l/m 0,00 h 0,00 h 0 W/m 0,9 km/h (0 Bft) 95,18 %
21.01.2020 22:00 -2,4 C -3,8 C -3,8 C 94 % 1039,6 hPa 0,0 l/m 0,00 h 0,00 h 0 W/m 0,2 km/h (0 Bft) 98,12 %
21.01.2020 23:00 -3,1 C -3,9 C -4,0 C 95 % 1039,5 hPa 0,0 l/m 0,00 h 0,00 h 0 W/m 1,7 km/h (1 Bft) 99,14 %
22.01.2020 00:00 -2,9 C -3,5 C -3,7 C 96 % 1039,5 hPa 0,0 l/m 0,00 h 0,00 h 0 W/m 2,3 km/h (1 Bft) 92,32 %
22.01.2020 01:00 -2,4 C -2,8 C -3,0 C 97 % 1039,2 hPa 0,0 l/m 0,00 h 0,00 h 0 W/m 1,1 km/h (0 Bft) 96,37 %
22.01.2020 02:00 -2,4 C -3,1 C -3,3 C 97 % 1038,9 hPa 0,0 l/m 0,00 h 0,00 h 0 W/m 0,2 km/h (0 Bft) 97,66 %
22.01.2020 03:00 -2,4 C -2,8 C -3,0 C 98 % 1038,4 hPa 0,0 l/m 0,00 h 0,00 h 0 W/m 0,0 km/h (0 Bft) 96,95 %
22.01.2020 04:00 -2,2 C -2,8 C -2,8 C 98 % 1038,3 hPa 0,0 l/m 0,00 h 0,00 h 0 W/m 0,0 km/h (0 Bft) 97,66 %
22.01.2020 05:00 -2,2 C -2,8 C -2,8 C 98 % 1037,9 hPa 0,0 l/m 0,00 h 0,00 h 0 W/m 0,0 km/h (0 Bft) 96,12 %
22.01.2020 06:00 -2,1 C -2,8 C -2,8 C 98 % 1037,4 hPa 0,0 l/m 0,00 h 0,00 h 0 W/m 0,3 km/h (0 Bft) 97,32 %
22.01.2020 07:00 -2,1 C -2,6 C -2,8 C 98 % 1037,2 hPa 0,0 l/m 0,00 h 0,00 h 0 W/m 0,1 km/h (0 Bft) 99,50 %
22.01.2020 08:00 -1,8 C -2,2 C -2,7 C 98 % 1037,6 hPa 0,0 l/m 0,00 h 0,00 h 8 W/m 0,6 km/h (0 Bft) 95,67 %
22.01.2020 09:00 -1,6 C -1,9 C -2,1 C 99 % 1037,8 hPa 0,0 l/m 0,00 h 0,00 h 31 W/m 0,5 km/h (0 Bft) 96,05 %
22.01.2020 10:00 -1,2 C -1,3 C -1,7 C 99 % 1038,0 hPa 0,0 l/m 0,00 h 0,00 h 62 W/m 0,4 km/h (0 Bft) 98,20 %
22.01.2020 11:00 -0,7 C -0,5 C -0,8 C 99 % 1038,1 hPa 0,0 l/m 0,00 h 0,00 h 79 W/m 0,4 km/h (0 Bft) 96,90 %
22.01.2020 12:00 0,0 C 0,0 C -0,3 C 99 % 1037,6 hPa 0,0 l/m 0,00 h 0,00 h 81 W/m 0,6 km/h (0 Bft) 97,42 %
22.01.2020 13:00 0,6 C 0,5 C 0,1 C 99 % 1037,1 hPa 0,0 l/m 0,00 h 0,00 h 60 W/m 0,4 km/h (0 Bft) 96,57 %
22.01.2020 14:00 1,0 C 0,6 C 0,4 C 99 % 1036,8 hPa 0,0 l/m 0,00 h 0,00 h 40 W/m 0,6 km/h (0 Bft) 97,14 %
22.01.2020 15:00 1,2 C 0,6 C 0,3 C 99 % 1036,7 hPa 0,0 l/m 0,00 h 0,00 h 20 W/m 0,2 km/h (0 Bft) 98,00 %
22.01.2020 16:00 1,3 C 0,6 C 0,5 C 99 % 1036,7 hPa 0,0 l/m 0,00 h 0,00 h 9 W/m 0,3 km/h (0 Bft) 95,45 %
22.01.2020 17:00 1,4 C 0,6 C 0,6 C 100 % 1036,8 hPa 0,2 l/m 0,00 h 0,00 h 0 W/m 0,0 km/h (0 Bft) 99,59 %
22.01.2020 18:00 1,5 C 1,1 C 0,6 C 100 % 1037,0 hPa 0,0 l/m 0,00 h 0,00 h 0 W/m 0,0 km/h (0 Bft) 97,88 %
22.01.2020 19:00 1,7 C 1,1 C 0,6 C 99 % 1037,0 hPa 0,0 l/m 0,00 h 0,00 h 0 W/m 0,0 km/h (0 Bft) 95,37 %
22.01.2020 20:00 1,7 C 1,1 C 0,6 C 100 % 1037,2 hPa 0,0 l/m 0,00 h 0,00 h 0 W/m 0,0 km/h (0 Bft) 99,51 %
22.01.2020 21:00 1,7 C 1,1 C 0,6 C 100 % 1037,3 hPa 0,0 l/m 0,00 h 0,00 h 0 W/m 0,0 km/h (0 Bft) 96,81 %
22.01.2020 22:00 1,6 C 1,1 C 0,6 C 100 % 1037,5 hPa 0,0 l/m 0,00 h 0,00 h 0 W/m 0,1 km/h (0 Bft) 95,96 %
22.01.2020 23:00 1,7 C 1,1 C 0,6 C 100 % 1037,4 hPa 0,0 l/m 0,00 h 0,00 h 0 W/m 0,4 km/h (0 Bft) 96,44 %
23.01.2020 00:00 1,8 C 1,1 C 0,6 C 100 % 1037,4 hPa 0,0 l/m 0,00 h 0,00 h 0 W/m 0,4 km/h (0 Bft) 95,70 %
23.01.2020 01:00 1,8 C 1,1 C 0,9 C 100 % 1037,0 hPa 0,0 l/m 0,00 h 0,00 h 0 W/m 0,1 km/h (0 Bft) 99,36 %
23.01.2020 02:00 1,9 C 1,3 C 1,1 C 100 % 1036,6 hPa 0,0 l/m 0,00 h 0,00 h 0 W/m 0,2 km/h (0 Bft) 95,86 %
23.01.2020 03:00 2,1 C 1,7 C 1,1 C 100 % 1036,2 hPa 0,0 l/m 0,00 h 0,00 h 0 W/m 0,1 km/h (0 Bft) 97,42 %
23.01.2020 04:00 2,1 C 1,7 C 1,1 C 100 % 1035,6 hPa 0,0 l/m 0,00 h 0,00 h 0 W/m 0,0 km/h (0 Bft) 98,01 %
23.01.2020 05:00 2,1 C 1,7 C 1,1 C 100 % 1035,2 hPa 0,0 l/m 0,00 h 0,00 h 0 W/m 0,0 km/h (0 Bft) 96,30 %
23.01.2020 06:00 2,1 C 1,2 C 1,1 C 100 % 1034,8 hPa 0,0 l/m 0,00 h 0,00 h 0 W/m 0,0 km/h (0 Bft) 97,44 %
23.01.2020 07:00 1,8 C 0,8 C 0,3 C 100 % 1034,4 hPa 0,0 l/m 0,00 h 0,00 h 0 W/m 0,0 km/h (0 Bft) 98,51 %
23.01.2020 08:00 1,2 C 0,4 C -0,2 C 100 % 1034,3 hPa 0,0 l/m 0,00 h 0,00 h 5 W/m 0,0 km/h (0 Bft) 96,44 %
23.01.2020 09:00 1,4 C 1,5 C 1,0 C 100 % 1033,9 hPa 0,0 l/m 0,00 h 0,00 h 18 W/m 0,0 km/h (0 Bft) 97,03 %
23.01.2020 10:00 2,3 C 2,8 C 2,3 C 100 % 1033,7 hPa 0,0 l/m 0,00 h 0,00 h 48 W/m 0,4 km/h (0 Bft) 97,79 %
23.01.2020 11:00 3,2 C 3,3 C 2,8 C 100 % 1033,4 hPa 0,0 l/m 0,00 h 0,00 h 52 W/m 0,5 km/h (0 Bft) 97,51 %
23.01.2020 12:00 3,5 C 3,3 C 2,8 C 100 % 1032,6 hPa 0,0 l/m 0,00 h 0,00 h 58 W/m 1,0 km/h (0 Bft) 96,32 %
23.01.2020 13:00 3,7 C 3,9 C 2,9 C 98 % 1031,9 hPa 0,0 l/m 0,00 h 0,00 h 57 W/m 0,6 km/h (0 Bft) 98,72 %
23.01.2020 14:00 3,7 C 3,3 C 2,8 C 95 % 1031,1 hPa 0,0 l/m 0,00 h 0,00 h 39 W/m 0,4 km/h (0 Bft) 97,72 %
23.01.2020 15:00 3,6 C 3,1 C 2,7 C 93 % 1030,4 hPa 0,0 l/m 0,00 h 0,00 h 19 W/m 0,0 km/h (0 Bft) 94,77 %
23.01.2020 16:00 3,4 C 2,8 C 2,2 C 93 % 1029,7 hPa 0,0 l/m 0,00 h 0,00 h 10 W/m 0,6 km/h (0 Bft) 98,58 %
23.01.2020 17:00 3,1 C 2,3 C 1,9 C 94 % 1029,4 hPa 0,0 l/m 0,00 h 0,00 h 0 W/m 0,4 km/h (0 Bft) 95,66 %
23.01.2020 18:00 2,8 C 2,2 C 1,7 C 94 % 1028,8 hPa 0,0 l/m 0,00 h 0,00 h 0 W/m 0,0 km/h (0 Bft) 97,51 %
23.01.2020 19:00 2,7 C 2,2 C 1,7 C 95 % 1028,6 hPa 0,0 l/m 0,00 h 0,00 h 0 W/m 0,2 km/h (0 Bft) 95,91 %
23.01.2020 20:00 2,5 C 1,9 C 1,7 C 95 % 1028,3 hPa 0,0 l/m 0,00 h 0,00 h 0 W/m 0,2 km/h (0 Bft) 97,43 %
23.01.2020 21:00 2,3 C 1,7 C 1,1 C 95 % 1027,8 hPa 0,0 l/m 0,00 h 0,00 h 0 W/m 0,3 km/h (0 Bft) 99,07 %
23.01.2020 22:00 2,1 C 1,5 C 1,0 C 95 % 1027,6 hPa 0,0 l/m 0,00 h 0,00 h 0 W/m 1,9 km/h (1 Bft) 95,94 %
23.01.2020 23:00 1,6 C -0,1 C -0,6 C 95 % 1027,2 hPa 0,0 l/m 0,00 h 0,00 h 0 W/m 0,0 km/h (0 Bft) 96,30 %
24.01.2020 00:00 0,4 C -1,3 C -2,0 C 94 % 1026,7 hPa 0,0 l/m 0,00 h 0,00 h 0 W/m 0,0 km/h (0 Bft) 96,94 %
24.01.2020 01:00 -0,2 C -1,1 C -1,7 C 94 % 1026,1 hPa 0,0 l/m 0,00 h 0,00 h 0 W/m 0,2 km/h (0 Bft) 98,29 %
24.01.2020 02:00 0,1 C -0,3 C -0,8 C 96 % 1026,0 hPa 0,0 l/m 0,00 h 0,00 h 0 W/m 0,5 km/h (0 Bft) 94,18 %
24.01.2020 03:00 0,2 C -0,5 C -0,6 C 96 % 1025,7 hPa 0,0 l/m 0,00 h 0,00 h 0 W/m 1,3 km/h (1 Bft) 97,01 %
24.01.2020 04:00 0,2 C -0,1 C -0,6 C 96 % 1025,2 hPa 0,0 l/m 0,00 h 0,00 h 0 W/m 1,4 km/h (1 Bft) 96,82 %
24.01.2020 05:00 0,3 C 0,0 C -0,6 C 96 % 1025,1 hPa 0,0 l/m 0,00 h 0,00 h 0 W/m 0,2 km/h (0 Bft) 95,36 %
24.01.2020 06:00 0,3 C -0,3 C -0,6 C 96 % 1024,7 hPa 0,0 l/m 0,00 h 0,00 h 0 W/m 0,3 km/h (0 Bft) 97,36 %
24.01.2020 07:00 0,3 C -0,4 C -0,6 C 96 % 1024,5 hPa 0,0 l/m 0,00 h 0,00 h 0 W/m 0,5 km/h (0 Bft) 96,38 %
24.01.2020 08:00 0,6 C 0,0 C -0,6 C 97 % 1024,7 hPa 0,0 l/m 0,00 h 0,00 h 5 W/m 0,3 km/h (0 Bft) 95,32 %
24.01.2020 09:00 0,6 C 0,0 C -0,6 C 98 % 1024,9 hPa 0,0 l/m 0,00 h 0,00 h 12 W/m 2,2 km/h (1 Bft) 95,68 %
24.01.2020 10:00 0,6 C 0,0 C -0,6 C 98 % 1025,1 hPa 0,0 l/m 0,00 h 0,00 h 23 W/m 3,4 km/h (1 Bft) 97,58 %
24.01.2020 11:00 0,4 C 0,0 C -0,2 C 98 % 1025,3 hPa 0,0 l/m 0,00 h 0,00 h 31 W/m 0,2 km/h (0 Bft) 97,85 %
24.01.2020 12:00 0,5 C 0,4 C 0,0 C 98 % 1025,1 hPa 0,0 l/m 0,00 h 0,00 h 37 W/m 0,0 km/h (0 Bft) 97,10 %
24.01.2020 13:00 0,6 C 0,6 C 0,0 C 98 % 1024,7 hPa 0,0 l/m 0,00 h 0,00 h 35 W/m 0,0 km/h (0 Bft) 98,36 %
24.01.2020 14:00 0,6 C 0,3 C 0,0 C 97 % 1024,1 hPa 0,0 l/m 0,00 h 0,00 h 36 W/m 0,4 km/h (0 Bft) 97,01 %
24.01.2020 15:00 0,4 C 0,0 C -0,1 C 96 % 1023,8 hPa 0,0 l/m 0,00 h 0,00 h 29 W/m 0,6 km/h (0 Bft) 97,44 %
24.01.2020 16:00 0,3 C 0,0 C -0,5 C 95 % 1023,6 hPa 0,0 l/m 0,00 h 0,00 h 12 W/m 0,1 km/h (0 Bft) 97,79 %
24.01.2020 17:00 0,2 C -0,5 C -0,6 C 94 % 1023,4 hPa 0,0 l/m 0,00 h 0,00 h 0 W/m 0,7 km/h (0 Bft) 96,37 %
24.01.2020 18:00 0,1 C -0,6 C -0,6 C 94 % 1023,9 hPa 0,0 l/m 0,00 h 0,00 h 0 W/m 0,3 km/h (0 Bft) 99,22 %
24.01.2020 19:00 0,2 C -0,6 C -0,6 C 94 % 1024,1 hPa 0,0 l/m 0,00 h 0,00 h 0 W/m 0,0 km/h (0 Bft) 94,99 %
24.01.2020 20:00 0,2 C -0,3 C -0,6 C 94 % 1024,4 hPa 0,0 l/m 0,00 h 0,00 h 0 W/m 0,0 km/h (0 Bft) 96,86 %
24.01.2020 21:00 0,4 C 0,0 C -0,4 C 95 % 1024,4 hPa 0,0 l/m 0,00 h 0,00 h 0 W/m 0,0 km/h (0 Bft) 99,04 %
24.01.2020 22:00 0,6 C 0,1 C 0,0 C 94 % 1024,0 hPa 0,0 l/m 0,00 h 0,00 h 0 W/m 0,4 km/h (0 Bft) 95,73 %
24.01.2020 23:00 0,8 C 0,6 C 0,0 C 94 % 1023,8 hPa 0,0 l/m 0,00 h 0,00 h 0 W/m 0,9 km/h (0 Bft) 97,42 %
25.01.2020 00:00 0,9 C 0,6 C 0,0 C 94 % 1023,8 hPa 0,0 l/m 0,00 h 0,00 h 0 W/m 0,3 km/h (0 Bft) 99,41 %
25.01.2020 01:00 1,0 C 0,6 C 0,0 C 93 % 1023,5 hPa 0,0 l/m 0,00 h 0,00 h 0 W/m 0,0 km/h (0 Bft) 96,23 %
25.01.2020 02:00 0,9 C 0,6 C 0,0 C 94 % 1023,5 hPa 0,0 l/m 0,00 h 0,00 h 0 W/m 0,0 km/h (0 Bft) 97,44 %
25.01.2020 03:00 0,9 C 0,6 C 0,0 C 94 % 1023,1 hPa 0,0 l/m 0,00 h 0,00 h 0 W/m 0,1 km/h (0 Bft) 98,08 %
25.01.2020 04:00 0,9 C 0,6 C 0,0 C 94 % 1022,8 hPa 0,0 l/m 0,00 h 0,00 h 0 W/m 0,4 km/h (0 Bft) 96,23 %
25.01.2020 05:00 0,9 C 0,6 C 0,0 C 94 % 1022,6 hPa 0,0 l/m 0,00 h 0,00 h 0 W/m 0,1 km/h (0 Bft) 98,50 %
25.01.2020 06:00 0,8 C 0,1 C 0,0 C 94 % 1022,6 hPa 0,0 l/m 0,00 h 0,00 h 0 W/m 0,2 km/h (0 Bft) 95,80 %
25.01.2020 07:00 0,6 C 0,0 C -0,4 C 94 % 1022,9 hPa 0,0 l/m 0,00 h 0,00 h 0 W/m 0,4 km/h (0 Bft) 97,37 %
25.01.2020 08:00 0,6 C 0,0 C -0,1 C 94 % 1023,0 hPa 0,0 l/m 0,00 h 0,00 h 6 W/m 0,3 km/h (0 Bft) 99,07 %
25.01.2020 09:00 0,8 C 0,4 C 0,0 C 94 % 1023,1 hPa 0,0 l/m 0,00 h 0,00 h 15 W/m 0,3 km/h (0 Bft) 93,34 %
25.01.2020 10:00 0,8 C 0,6 C 0,0 C 95 % 1023,3 hPa 0,0 l/m 0,00 h 0,00 h 32 W/m 0,6 km/h (0 Bft) 99,36 %
25.01.2020 11:00 1,0 C 1,0 C 0,7 C 95 % 1023,5 hPa 0,0 l/m 0,00 h 0,00 h 58 W/m 0,2 km/h (0 Bft) 98,01 %
25.01.2020 12:00 1,8 C 2,0 C 1,7 C 96 % 1023,1 hPa 0,0 l/m 0,00 h 0,00 h 73 W/m 0,4 km/h (0 Bft) 95,51 %
25.01.2020 13:00 2,2 C 1,6 C 1,3 C 96 % 1022,7 hPa 0,0 l/m 0,00 h 0,00 h 50 W/m 0,4 km/h (0 Bft) 98,94 %
25.01.2020 14:00 2,3 C 1,7 C 1,2 C 97 % 1022,0 hPa 0,0 l/m 0,00 h 0,00 h 32 W/m 0,0 km/h (0 Bft) 97,43 %
25.01.2020 15:00 2,5 C 2,1 C 1,7 C 98 % 1021,5 hPa 0,0 l/m 0,00 h 0,00 h 21 W/m 0,1 km/h (0 Bft) 96,44 %
25.01.2020 16:00 2,8 C 2,2 C 1,7 C 98 % 1021,0 hPa 0,0 l/m 0,00 h 0,00 h 7 W/m 0,2 km/h (0 Bft) 97,36 %
25.01.2020 17:00 2,9 C 2,2 C 1,7 C 98 % 1021,0 hPa 0,0 l/m 0,00 h 0,00 h 0 W/m 0,0 km/h (0 Bft) 98,65 %
25.01.2020 18:00 3,2 C 2,6 C 2,2 C 99 % 1021,3 hPa 0,0 l/m 0,00 h 0,00 h 0 W/m 0,1 km/h (0 Bft) 97,65 %
25.01.2020 19:00 3,3 C 2,8 C 2,2 C 99 % 1021,4 hPa 0,0 l/m 0,00 h 0,00 h 0 W/m 0,0 km/h (0 Bft) 96,02 %
25.01.2020 20:00 3,2 C 2,5 C 2,0 C 99 % 1021,3 hPa 0,0 l/m 0,00 h 0,00 h 0 W/m 1,5 km/h (1 Bft) 99,29 %
25.01.2020 21:00 2,9 C 2,2 C 1,7 C 99 % 1021,0 hPa 0,0 l/m 0,00 h 0,00 h 0 W/m 1,8 km/h (1 Bft) 97,37 %
25.01.2020 22:00 2,7 C 2,0 C 1,7 C 99 % 1020,6 hPa 0,2 l/m 0,00 h 0,00 h 0 W/m 4,2 km/h (1 Bft) 96,79 %
25.01.2020 23:00 2,5 C 1,7 C 1,2 C 99 % 1020,5 hPa 0,0 l/m 0,00 h 0,00 h 0 W/m 10,1 km/h (2 Bft) 98,22 %
26.01.2020 00:00 2,3 C 1,7 C 1,1 C 100 % 1020,2 hPa 0,0 l/m 0,00 h 0,00 h 0 W/m 8,5 km/h (2 Bft) 96,17 %
26.01.2020 01:00 2,2 C 1,6 C 1,1 C 100 % 1019,8 hPa 0,0 l/m 0,00 h 0,00 h 0 W/m 12,0 km/h (2 Bft) 97,01 %
26.01.2020 02:00 2,1 C 1,4 C 1,1 C 100 % 1019,4 hPa 0,0 l/m 0,00 h 0,00 h 0 W/m 15,0 km/h (3 Bft) 94,81 %
26.01.2020 03:00 1,8 C 1,1 C 0,8 C 100 % 1018,9 hPa 0,0 l/m 0,00 h 0,00 h 0 W/m 15,0 km/h (3 Bft) 96,30 %
26.01.2020 04:00 1,6 C 1,0 C 0,6 C 100 % 1018,3 hPa 0,0 l/m 0,00 h 0,00 h 0 W/m 15,6 km/h (3 Bft) 97,14 %
26.01.2020 05:00 1,4 C 0,7 C 0,6 C 100 % 1017,9 hPa 0,0 l/m 0,00 h 0,00 h 0 W/m 12,8 km/h (3 Bft) 92,28 %
26.01.2020 06:00 1,4 C 0,7 C 0,6 C 100 % 1017,8 hPa 0,0 l/m 0,00 h 0,00 h 0 W/m 12,9 km/h (3 Bft) 94,75 %
26.01.2020 07:00 1,3 C 0,6 C 0,5 C 100 % 1017,6 hPa 0,0 l/m 0,00 h 0,00 h 0 W/m 12,2 km/h (2 Bft) 98,18 %
26.01.2020 08:00 1,2 C 0,8 C 0,3 C 100 % 1017,5 hPa 0,0 l/m 0,00 h 0,00 h 10 W/m 11,9 km/h (2 Bft) 93,90 %
26.01.2020 09:00 1,7 C 1,9 C 1,4 C 100 % 1017,4 hPa 0,0 l/m 0,00 h 0,00 h 45 W/m 17,0 km/h (3 Bft) 98,15 %
26.01.2020 10:00 2,5 C 3,4 C 2,4 C 100 % 1017,5 hPa 0,0 l/m 0,17 h 0,00 h 106 W/m 17,5 km/h (3 Bft) 98,13 %
26.01.2020 11:00 4,0 C 6,2 C 4,0 C 100 % 1017,3 hPa 0,0 l/m 0,53 h 0,00 h 197 W/m 20,0 km/h (4 Bft) 96,25 %
26.01.2020 12:00 6,0 C 9,8 C 6,2 C 98 % 1016,8 hPa 0,0 l/m 1,00 h 0,00 h 314 W/m 20,8 km/h (4 Bft) 95,80 %
26.01.2020 13:00 8,0 C 11,2 C 7,3 C 89 % 1016,1 hPa 0,0 l/m 0,93 h 0,00 h 299 W/m 20,8 km/h (4 Bft) 97,87 %
26.01.2020 14:00 9,2 C 11,8 C 8,0 C 85 % 1015,7 hPa 0,0 l/m 1,00 h 0,00 h 251 W/m 19,1 km/h (3 Bft) 98,52 %
26.01.2020 15:00 9,3 C 9,2 C 7,8 C 85 % 1015,3 hPa 0,0 l/m 0,30 h 0,00 h 92 W/m 15,1 km/h (3 Bft) 97,64 %
26.01.2020 16:00 8,7 C 7,9 C 7,0 C 86 % 1014,9 hPa 0,0 l/m 0,00 h 0,00 h 32 W/m 15,4 km/h (3 Bft) 96,94 %
26.01.2020 17:00 7,9 C 7,1 C 6,2 C 88 % 1014,7 hPa 0,0 l/m 0,00 h 0,00 h 6 W/m 16,6 km/h (3 Bft) 97,85 %
26.01.2020 18:00 7,5 C 6,7 C 6,0 C 89 % 1014,7 hPa 0,0 l/m 0,00 h 0,00 h 0 W/m 18,1 km/h (3 Bft) 97,29 %
26.01.2020 19:00 7,3 C 6,6 C 6,0 C 89 % 1014,7 hPa 0,0 l/m 0,00 h 0,00 h 0 W/m 17,2 km/h (3 Bft) 98,35 %
26.01.2020 20:00 7,0 C 6,1 C 5,6 C 90 % 1014,7 hPa 0,0 l/m 0,00 h 0,00 h 0 W/m 8,9 km/h (2 Bft) 95,80 %
26.01.2020 21:00 6,5 C 5,7 C 4,7 C 91 % 1014,5 hPa 0,0 l/m 0,00 h 0,00 h 0 W/m 7,3 km/h (2 Bft) 98,29 %
26.01.2020 22:00 5,9 C 5,1 C 4,3 C 92 % 1014,0 hPa 0,0 l/m 0,00 h 0,00 h 0 W/m 17,5 km/h (3 Bft) 98,79 %
26.01.2020 23:00 5,4 C 4,4 C 3,9 C 93 % 1013,5 hPa 0,0 l/m 0,00 h 0,00 h 0 W/m 19,2 km/h (3 Bft) 94,38 %
Min-Datum _ 21.01.20 21.01.20 21.01.20 21.01.20 26.01.20 - - - - 20.01.20 22.01.20
_ Min-Zeit 23:46 06:34 06:34 14:42 23:26 - - - - 00:00 00:02
Minimum _ -3,2 C -4,4 C -4,4 C 81 % 1013,4 hPa - - - - 0,0 km/h (0 Bft) 9,09 %
Max-Datum _ 26.01.20 21.01.20 26.01.20 20.01.20 20.01.20 20.01.20 21.01.20 20.01.20 26.01.20 26.01.20 20.01.20
_ Max-Zeit 15:04 13:32 12:40 15:44 10:50 09:58 09:44 00:00 12:00 17:10 00:00
Maximum _ 9,6 C 12,8 C 8,9 C 100 % 1049,2 hPa 0,2 l/m 0,03 h 0,00 h 378 W/m 32,2 km/h
SO (5 Bft)
100,00 %
Durchschnitt _ 1,6 C 1,2 C 0,5 C 97 % 1031,9 hPa #0,8 l/m #9:14 h #0 min. 71 W/m 2,6 km/h (1 Bft) 97,00 %
© 2020 W. Hausmann